Time;durP1;ratioP1;P1;durP2;ratioP2;P2;SDS_P1;SDS_P2;PMS_P1;PMS_P2;Temp;Humidity;BMP_temperature;BMP_pressure;BME280_temperature;BME280_humidity;BME280_pressure;Samples;Min_cycle;Max_cycle;Signal;HPM_P1;HPM_P2
2022/01/26 00:07:50;;;;;;;67.83;26.47;;;;;;;-2.11;100.00;97511.38;5076616;28;20462;-81
2022/01/26 00:10:16;;;;;;;69.77;26.33;;;;;;;-2.02;100.00;97515.38;5040729;28;20454;-81
2022/01/26 00:12:42;;;;;;;105.70;29.47;;;;;;;-2.03;100.00;97508.53;5060836;28;20451;-81
2022/01/26 00:15:08;;;;;;;207.07;32.13;;;;;;;-2.08;100.00;97511.25;5061688;28;20025;-81
2022/01/26 00:17:34;;;;;;;182.97;30.80;;;;;;;-2.12;100.00;97504.50;5062675;28;20035;-81
2022/01/26 00:20:24;;;;;;;59.27;27.10;;;;;;;-1.98;100.00;97509.22;5048185;28;20549;-81
2022/01/26 00:38:39;;;;;;;310.20;39.13;;;;;;;-2.32;100.00;97522.34;5064956;28;20497;-80
2022/01/26 00:41:17;;;;;;;108.07;27.27;;;;;;;-2.11;100.00;97513.09;5041584;28;20481;-81
2022/01/26 00:43:50;;;;;;;61.30;25.07;;;;;;;-2.13;100.00;97516.56;5050576;28;20464;-81
2022/01/26 00:46:16;;;;;;;171.67;27.30;;;;;;;-2.18;100.00;97512.44;5049741;28;20908;-81
2022/01/26 00:48:43;;;;;;;190.43;30.77;;;;;;;-2.20;100.00;97512.50;5069315;28;20434;-81
2022/01/26 00:51:11;;;;;;;110.43;26.27;;;;;;;-2.16;100.00;97508.94;5054235;28;20482;-81
2022/01/26 00:53:50;;;;;;;48.40;22.70;;;;;;;-2.15;100.00;97514.91;5049951;28;20466;-81
2022/01/26 00:56:16;;;;;;;81.63;24.60;;;;;;;-2.19;100.00;97508.19;5060476;28;20481;-81
2022/01/26 00:58:44;;;;;;;55.50;24.40;;;;;;;-2.25;100.00;97509.22;5047032;28;20472;-81
2022/01/26 01:01:10;;;;;;;120.07;26.67;;;;;;;-2.33;100.00;97506.06;5043123;28;20509;-81
2022/01/26 01:03:40;;;;;;;85.37;24.47;;;;;;;-2.30;100.00;97516.28;5073193;28;20508;-81
2022/01/26 01:08:42;;;;;;;166.87;25.07;;;;;;;-2.49;100.00;97512.59;5063923;28;20485;-81
2022/01/26 01:11:09;;;;;;;109.57;23.17;;;;;;;-2.45;100.00;97511.59;5044644;28;20466;-81
2022/01/26 01:13:38;;;;;;;53.57;21.80;;;;;;;-2.30;100.00;97510.28;5059594;28;20502;-81
2022/01/26 01:16:07;;;;;;;288.80;31.23;;;;;;;-2.49;100.00;97499.69;5053210;28;20462;-81
2022/01/26 01:18:44;;;;;;;240.73;29.20;;;;;;;-2.53;100.00;97509.25;5049764;28;21041;-81
2022/01/26 01:32:28;;;;;;;163.03;26.17;;;;;;;-2.63;100.00;97511.28;5077233;28;20553;-81
2022/01/26 01:34:18;;;;;;;103.13;24.03;;;;;;;-2.58;100.00;97505.13;5059111;28;20515;-81
2022/01/26 01:36:47;;;;;;;145.40;23.77;;;;;;;-2.69;100.00;97519.19;5083272;28;20539;-81
2022/01/26 01:39:13;;;;;;;162.87;25.27;;;;;;;-2.66;100.00;97524.25;5049312;28;20458;-81
2022/01/26 01:41:42;;;;;;;135.77;25.10;;;;;;;-2.63;100.00;97519.00;5073764;28;20511;-81
2022/01/26 01:44:09;;;;;;;145.67;26.10;;;;;;;-2.55;100.00;97520.50;5054296;28;20496;-81
2022/01/26 01:46:36;;;;;;;214.97;28.07;;;;;;;-2.65;100.00;97518.22;5043587;28;20545;-83
2022/01/26 01:49:05;;;;;;;127.67;23.73;;;;;;;-2.83;100.00;97513.63;5068880;28;20457;-81
2022/01/26 01:51:36;;;;;;;256.00;29.20;;;;;;;-2.73;100.00;97506.47;5048275;28;20625;-81
2022/01/26 01:54:03;;;;;;;120.20;25.37;;;;;;;-2.61;100.00;97506.94;5047053;28;20970;-81
2022/01/26 01:56:29;;;;;;;154.27;27.20;;;;;;;-2.66;100.00;97511.38;5051583;28;21050;-80
2022/01/26 01:58:58;;;;;;;140.97;26.50;;;;;;;-2.66;100.00;97508.78;5068970;28;20474;-81
2022/01/26 02:01:25;;;;;;;113.93;24.07;;;;;;;-2.70;100.00;97517.50;5044795;28;20044;-81
2022/01/26 02:03:52;;;;;;;107.00;23.93;;;;;;;-2.72;100.00;97514.13;5045214;28;20465;-81
2022/01/26 02:06:18;;;;;;;164.20;26.97;;;;;;;-2.74;100.00;97509.94;5047666;28;20550;-81
2022/01/26 02:08:44;;;;;;;67.90;23.23;;;;;;;-2.77;100.00;97513.44;5055887;28;20462;-81
2022/01/26 02:11:12;;;;;;;177.13;26.07;;;;;;;-2.71;100.00;97510.69;5064810;28;20882;-81
2022/01/26 02:13:49;;;;;;;100.57;24.40;;;;;;;-2.81;100.00;97505.88;5057643;28;20109;-81
2022/01/26 02:16:25;;;;;;;52.00;23.37;;;;;;;-2.74;100.00;97507.34;5050301;28;20458;-81
2022/01/26 02:19:40;;;;;;;114.20;25.57;;;;;;;-2.79;100.00;97496.34;5065227;28;20443;-82
2022/01/26 03:02:53;;;;;;;99.83;26.70;;;;;;;-2.88;100.00;97507.78;5063396;28;20473;-81
2022/01/26 03:05:08;;;;;;;102.20;26.13;;;;;;;-2.93;100.00;97517.34;5060176;28;20525;-81
2022/01/26 03:08:01;;;;;;;85.07;25.07;;;;;;;-2.91;100.00;97515.59;5073114;28;20450;-81
2022/01/26 03:10:56;;;;;;;81.67;25.33;;;;;;;-3.02;100.00;97515.88;5049290;28;20470;-81
2022/01/26 03:13:27;;;;;;;74.97;23.13;;;;;;;-3.09;100.00;97504.91;5048537;28;20528;-81
2022/01/26 03:15:57;;;;;;;80.53;22.07;;;;;;;-3.09;100.00;97509.22;5028520;28;20495;-81
2022/01/26 03:21:13;;;;;;;50.83;21.97;;;;;;;-2.92;100.00;97511.31;5058933;28;20836;-81
2022/01/26 03:36:29;;;;;;;66.47;23.60;;;;;;;-2.92;100.00;97513.88;5063395;28;20819;-81
2022/01/26 03:39:08;;;;;;;50.97;21.50;;;;;;;-2.84;100.00;97506.78;5061836;28;20067;-80
2022/01/26 03:41:46;;;;;;;77.53;24.00;;;;;;;-2.88;100.00;97508.63;5054196;28;20474;-81
2022/01/26 03:44:19;;;;;;;79.30;24.10;;;;;;;-2.93;100.00;97504.47;5048859;28;20490;-80
2022/01/26 03:46:51;;;;;;;61.80;23.17;;;;;;;-2.85;100.00;97512.81;5065090;28;20501;-81
2022/01/26 03:49:17;;;;;;;70.17;22.63;;;;;;;-2.87;100.00;97510.28;5077801;28;20041;-81
2022/01/26 03:51:46;;;;;;;65.43;21.70;;;;;;;-2.79;100.00;97511.78;5050974;28;20466;-81
2022/01/26 03:54:13;;;;;;;74.60;21.43;;;;;;;-2.83;100.00;97512.78;5037139;28;20029;-81
2022/01/26 03:56:44;;;;;;;71.97;21.80;;;;;;;-2.86;100.00;97516.28;5034575;28;20470;-80
2022/01/26 03:59:10;;;;;;;69.33;21.77;;;;;;;-2.85;100.00;97513.69;5024003;28;20475;-81
2022/01/26 04:01:36;;;;;;;66.90;23.17;;;;;;;-2.85;100.00;97513.69;5073599;28;20569;-81
2022/01/26 04:04:03;;;;;;;84.50;24.57;;;;;;;-2.86;100.00;97511.97;5056106;28;20999;-81
2022/01/26 04:06:35;;;;;;;62.83;25.87;;;;;;;-2.86;100.00;97511.13;5042070;28;20446;-82
2022/01/26 04:09:05;;;;;;;69.90;24.73;;;;;;;-2.85;100.00;97515.38;5067765;28;20620;-81
2022/01/26 04:13:58;;;;;;;60.27;22.60;;;;;;;-2.79;100.00;97511.78;5060483;28;20556;-81
2022/01/26 04:16:24;;;;;;;81.73;26.17;;;;;;;-2.81;100.00;97514.41;5061440;28;20024;-81
2022/01/26 04:18:52;;;;;;;84.37;24.23;;;;;;;-2.81;100.00;97511.84;5042716;28;20558;-81
2022/01/26 04:21:54;;;;;;;69.47;24.03;;;;;;;-2.70;100.00;97519.25;5056825;28;20046;-81
2022/01/26 04:24:28;;;;;;;88.77;25.37;;;;;;;-2.70;100.00;97502.06;5065997;28;20921;-81
2022/01/26 04:27:05;;;;;;;77.03;26.30;;;;;;;-2.67;100.00;97506.28;5051297;28;20796;-81
2022/01/26 04:29:33;;;;;;;76.83;24.10;;;;;;;-2.64;100.00;97509.59;5073068;28;20472;-81
2022/01/26 04:32:01;;;;;;;68.60;25.07;;;;;;;-2.63;100.00;97505.28;5040649;28;20555;-80
2022/01/26 04:34:28;;;;;;;63.47;24.10;;;;;;;-2.57;100.00;97501.69;5042911;28;21135;-81
2022/01/26 04:39:26;;;;;;;83.27;24.80;;;;;;;-2.62;100.00;97494.97;5068043;28;20474;-81
2022/01/26 04:41:58;;;;;;;67.13;24.70;;;;;;;-2.61;100.00;97486.34;5054253;28;20481;-81
2022/01/26 04:44:27;;;;;;;61.33;23.90;;;;;;;-2.59;100.00;97482.84;5045611;28;20459;-81
2022/01/26 04:46:54;;;;;;;84.03;27.27;;;;;;;-2.59;100.00;97478.53;5056644;28;21018;-81
2022/01/26 04:49:20;;;;;;;86.70;25.90;;;;;;;-2.65;100.00;97479.59;5047100;28;20565;-81
2022/01/26 04:51:46;;;;;;;91.10;26.13;;;;;;;-2.63;100.00;97474.38;5063604;28;20474;-81
2022/01/26 04:54:12;;;;;;;86.90;25.17;;;;;;;-2.70;100.00;97481.47;5061706;28;20468;-81
2022/01/26 04:56:39;;;;;;;63.53;24.93;;;;;;;-2.62;100.00;97479.50;5047530;28;20525;-81
2022/01/26 04:59:04;;;;;;;84.23;25.87;;;;;;;-2.65;100.00;97473.56;5080671;28;20446;-81
2022/01/26 05:01:30;;;;;;;78.10;27.63;;;;;;;-2.68;100.00;97473.69;5062294;28;20465;-81
2022/01/26 05:03:56;;;;;;;71.40;27.00;;;;;;;-2.59;100.00;97467.41;5041232;28;20029;-81
2022/01/26 05:06:22;;;;;;;66.20;26.23;;;;;;;-2.59;100.00;97473.38;5059914;28;20613;-81
2022/01/26 05:08:47;;;;;;;80.33;28.00;;;;;;;-2.59;100.00;97475.13;5062392;28;20027;-81
2022/01/26 05:11:19;;;;;;;87.50;29.40;;;;;;;-2.58;100.00;97469.94;5068929;28;20028;-81
2022/01/26 05:13:45;;;;;;;77.43;29.47;;;;;;;-2.55;100.00;97474.13;5052559;28;20585;-80
2022/01/26 05:16:11;;;;;;;80.33;28.77;;;;;;;-2.49;100.00;97479.09;5068557;28;20493;-81
2022/01/26 05:18:37;;;;;;;68.87;29.60;;;;;;;-2.47;100.00;97477.31;5068071;28;20124;-81
2022/01/26 05:21:03;;;;;;;79.47;30.27;;;;;;;-2.52;100.00;97479.19;5047862;28;20478;-81
2022/01/26 05:23:29;;;;;;;77.13;28.13;;;;;;;-2.40;100.00;97484.81;5043872;28;20828;-81
2022/01/26 05:25:55;;;;;;;87.50;28.97;;;;;;;-2.47;100.00;97485.06;5069094;28;20470;-81
2022/01/26 05:28:20;;;;;;;67.17;28.30;;;;;;;-2.42;100.00;97490.88;5069188;28;20032;-81
2022/01/26 05:30:46;;;;;;;71.67;28.57;;;;;;;-2.45;100.00;97480.69;5047115;28;20123;-81
2022/01/26 05:33:19;;;;;;;78.10;26.27;;;;;;;-2.46;100.00;97484.16;5051706;28;20031;-80
2022/01/26 05:35:45;;;;;;;86.35;27.10;;;;;;;-2.51;100.00;97484.31;5041982;28;20482;-81
2022/01/26 05:38:10;;;;;;;84.83;27.47;;;;;;;-2.45;100.00;97470.38;5062657;28;20039;-82
2022/01/26 05:40:36;;;;;;;90.90;27.00;;;;;;;-2.44;100.00;97479.81;5056564;28;20028;-81
2022/01/26 05:43:02;;;;;;;98.93;32.23;;;;;;;-2.48;100.00;97480.78;5053680;28;20032;-81
2022/01/26 05:45:38;;;;;;;84.33;28.20;;;;;;;-2.46;100.00;97479.00;5059003;28;20020;-81
2022/01/26 05:48:10;;;;;;;69.03;29.43;;;;;;;-2.43;100.00;97479.75;5043368;28;20433;-81
2022/01/26 05:50:37;;;;;;;114.60;52.10;;;;;;;-2.42;100.00;97478.00;5043995;28;20983;-79
2022/01/26 05:53:03;;;;;;;104.90;35.90;;;;;;;-2.43;100.00;97484.06;5052610;28;20511;-81
2022/01/26 05:55:29;;;;;;;94.87;35.70;;;;;;;-2.44;100.00;97483.22;5050543;28;20489;-80
2022/01/26 05:57:54;;;;;;;95.93;33.83;;;;;;;-2.39;100.00;97475.34;5078332;28;20501;-81
2022/01/26 06:00:20;;;;;;;95.40;31.70;;;;;;;-2.45;100.00;97485.81;5062636;28;20028;-81
2022/01/26 06:02:46;;;;;;;87.33;32.17;;;;;;;-2.40;100.00;97481.38;5077357;28;20032;-81
2022/01/26 06:05:12;;;;;;;86.63;29.30;;;;;;;-2.42;100.00;97485.75;5065267;28;20025;-81
2022/01/26 06:07:38;;;;;;;81.53;30.43;;;;;;;-2.36;100.00;97475.25;5079055;28;20039;-82
2022/01/26 06:10:04;;;;;;;113.20;30.63;;;;;;;-2.34;100.00;97472.63;5047861;28;20650;-81
2022/01/26 06:12:33;;;;;;;83.03;28.47;;;;;;;-2.34;100.00;97472.63;5066284;28;20161;-81
2022/01/26 06:15:03;;;;;;;72.27;26.67;;;;;;;-2.34;100.00;97465.75;5070595;28;20422;-82
2022/01/26 06:17:29;;;;;;;85.90;27.67;;;;;;;-2.38;100.00;97456.44;5050171;28;20470;-83
2022/01/26 06:19:55;;;;;;;78.27;27.20;;;;;;;-2.34;100.00;97452.03;5052690;28;20446;-83
2022/01/26 06:22:22;;;;;;;77.60;28.17;;;;;;;-2.40;100.00;97453.06;5046429;28;20711;-80
2022/01/26 06:24:47;;;;;;;71.17;30.43;;;;;;;-2.39;100.00;97452.16;5061106;28;20545;-81
2022/01/26 06:27:13;;;;;;;87.47;29.83;;;;;;;-2.35;100.00;97455.47;5053306;28;20471;-81
2022/01/26 06:29:39;;;;;;;91.30;28.60;;;;;;;-2.34;100.00;97457.16;5068304;28;20129;-81
2022/01/26 06:32:05;;;;;;;112.57;29.40;;;;;;;-2.44;100.00;97451.47;5059602;28;20035;-81
2022/01/26 06:34:32;;;;;;;80.83;28.53;;;;;;;-2.43;100.00;97443.69;5050183;28;20090;-80
2022/01/26 06:36:57;;;;;;;79.73;27.00;;;;;;;-2.45;100.00;97440.34;5041803;28;20479;-81
2022/01/26 06:39:23;;;;;;;94.07;32.70;;;;;;;-2.44;100.00;97436.03;5045408;28;20512;-81
2022/01/26 06:41:53;;;;;;;104.03;31.83;;;;;;;-2.46;100.00;97437.78;5043382;28;20512;-81
2022/01/26 06:44:28;;;;;;;96.17;28.30;;;;;;;-2.42;100.00;97434.22;5058490;28;20071;-80
2022/01/26 06:47:15;;;;;;;117.23;31.70;;;;;;;-2.40;100.00;97453.06;5060399;28;20458;-81
2022/01/26 06:49:41;;;;;;;102.97;35.17;;;;;;;-2.37;100.00;97442.66;5061988;28;20473;-79
2022/01/26 06:52:07;;;;;;;90.33;30.13;;;;;;;-2.39;100.00;97444.41;5061255;28;20450;-81
2022/01/26 06:54:34;;;;;;;95.93;28.90;;;;;;;-2.42;100.00;97445.34;5042877;28;20028;-81
2022/01/26 06:57:00;;;;;;;93.40;27.87;;;;;;;-2.40;100.00;97453.88;5040276;28;21256;-81
2022/01/26 06:59:26;;;;;;;83.43;29.07;;;;;;;-2.45;100.00;97460.94;5064705;28;20554;-81
2022/01/26 07:01:52;;;;;;;97.33;33.53;;;;;;;-2.48;100.00;97470.47;5062525;28;20050;-81
2022/01/26 07:04:18;;;;;;;85.73;29.60;;;;;;;-2.45;100.00;97460.94;5051927;28;20123;-81
2022/01/26 07:06:44;;;;;;;87.33;29.17;;;;;;;-2.44;100.00;97467.78;5054339;28;20521;-81
2022/01/26 07:09:10;;;;;;;89.50;30.20;;;;;;;-2.49;100.00;97466.22;5056753;28;20124;-81
2022/01/26 07:11:35;;;;;;;82.40;31.43;;;;;;;-2.41;100.00;97469.41;5063327;28;20123;-81
2022/01/26 07:14:06;;;;;;;88.43;30.23;;;;;;;-2.44;100.00;97475.50;5070007;28;20106;-81
2022/01/26 07:22:02;;;;;;;80.13;26.67;;;;;;;-2.46;100.00;97489.31;5060902;28;20482;-80
2022/01/26 07:24:28;;;;;;;97.83;28.40;;;;;;;-2.45;100.00;97485.81;5069990;28;20484;-80
2022/01/26 07:26:54;;;;;;;108.80;30.07;;;;;;;-2.42;100.00;97501.19;5055179;28;20035;-81
2022/01/26 07:29:24;;;;;;;85.53;28.40;;;;;;;-2.41;100.00;97505.47;5069147;28;20538;-81
2022/01/26 07:31:50;;;;;;;92.13;28.03;;;;;;;-2.40;100.00;97510.56;5068788;28;20054;-80
2022/01/26 07:34:20;;;;;;;82.47;28.33;;;;;;;-2.36;100.00;97511.31;5068155;28;20455;-81
2022/01/26 07:36:48;;;;;;;109.73;31.27;;;;;;;-2.39;100.00;97509.66;5040507;28;21071;-81
2022/01/26 07:39:17;;;;;;;97.23;28.80;;;;;;;-2.29;100.00;97510.22;5062829;28;20520;-81
2022/01/26 07:41:44;;;;;;;100.50;32.57;;;;;;;-2.37;100.00;97514.78;5060869;28;20470;-81
2022/01/26 07:44:09;;;;;;;87.20;29.27;;;;;;;-2.29;100.00;97515.38;5043243;28;20788;-81
2022/01/26 07:46:36;;;;;;;107.17;29.97;;;;;;;-2.24;100.00;97512.66;5042190;28;20459;-81
2022/01/26 07:49:02;;;;;;;105.63;27.40;;;;;;;-2.30;100.00;97513.69;5069649;28;20485;-81
2022/01/26 07:51:28;;;;;;;88.17;29.37;;;;;;;-2.19;100.00;97513.34;5041170;28;20825;-80
2022/01/26 07:53:54;;;;;;;90.07;30.23;;;;;;;-2.24;100.00;97515.25;5065716;28;20458;-81
2022/01/26 07:56:20;;;;;;;133.87;30.87;;;;;;;-2.23;100.00;97522.91;5059412;28;20101;-81
2022/01/26 07:58:48;;;;;;;93.77;28.97;;;;;;;-2.25;100.00;97527.25;5042143;28;20044;-80
2022/01/26 08:01:15;;;;;;;97.73;29.20;;;;;;;-2.21;100.00;97528.03;5057026;28;20490;-81
2022/01/26 08:03:42;;;;;;;116.67;29.53;;;;;;;-2.20;100.00;97533.13;5060606;28;20486;-81
2022/01/26 08:06:14;;;;;;;91.73;30.23;;;;;;;-2.27;100.00;97541.09;5062923;28;20505;-80
2022/01/26 08:08:40;;;;;;;84.43;27.77;;;;;;;-2.22;100.00;97539.19;5065655;28;20467;-81
2022/01/26 08:11:05;;;;;;;89.20;26.53;;;;;;;-2.26;100.00;97532.47;5060378;28;20550;-81
2022/01/26 08:13:31;;;;;;;86.83;29.10;;;;;;;-2.19;100.00;97539.94;5052616;28;20033;-79
2022/01/26 08:15:57;;;;;;;94.60;28.73;;;;;;;-2.11;100.00;97544.00;5042190;28;20032;-81
2022/01/26 08:18:26;;;;;;;76.43;27.07;;;;;;;-2.10;100.00;97543.13;5058693;28;20043;-81
2022/01/26 08:20:52;;;;;;;80.77;29.33;;;;;;;-2.11;100.00;97536.28;5058654;28;20123;-79
2022/01/26 08:23:22;;;;;;;79.07;26.77;;;;;;;-2.09;100.00;97535.34;5057009;28;20514;-81
2022/01/26 08:25:51;;;;;;;98.30;31.17;;;;;;;-2.15;100.00;97525.22;5041166;28;20474;-81
2022/01/26 08:28:26;;;;;;;82.43;29.40;;;;;;;-2.04;100.00;97523.16;5038278;28;20460;-81
2022/01/26 08:30:52;;;;;;;92.37;28.87;;;;;;;-2.05;100.00;97524.03;5057937;28;20470;-81
2022/01/26 08:33:17;;;;;;;95.97;28.20;;;;;;;-2.08;100.00;97526.72;5041820;28;21036;-81
2022/01/26 08:35:43;;;;;;;66.30;24.40;;;;;;;-2.02;100.00;97523.09;5049534;28;20477;-82
2022/01/26 08:38:09;;;;;;;65.63;24.83;;;;;;;-2.00;100.00;97523.91;5037493;28;20021;-82
2022/01/26 08:40:34;;;;;;;64.73;26.07;;;;;;;-1.86;100.00;97526.03;5072036;28;20024;-80
2022/01/26 08:43:01;;;;;;;76.57;28.23;;;;;;;-1.92;100.00;97533.06;5060232;28;20063;-79
2022/01/26 08:45:27;;;;;;;77.53;28.20;;;;;;;-1.91;100.00;97523.59;5044734;28;20122;-80
2022/01/26 08:47:53;;;;;;;93.07;27.57;;;;;;;-1.94;100.00;97523.72;5045469;28;20462;-80
2022/01/26 08:50:18;;;;;;;74.80;25.27;;;;;;;-1.92;100.00;97521.91;5086534;28;20019;-80
2022/01/26 08:52:44;;;;;;;81.33;28.07;;;;;;;-1.88;100.00;97520.91;5045506;28;20035;-81
2022/01/26 08:55:11;;;;;;;89.93;26.13;;;;;;;-1.97;100.00;97518.66;5058052;28;20036;-81
2022/01/26 08:57:37;;;;;;;97.20;25.70;;;;;;;-1.96;100.00;97517.75;5072874;28;20046;-79
2022/01/26 09:00:09;;;;;;;118.63;29.50;;;;;;;-2.02;100.00;97517.94;5057523;28;20462;-80
2022/01/26 09:02:37;;;;;;;106.67;29.40;;;;;;;-2.02;100.00;97523.94;5048397;28;21198;-81
2022/01/26 09:05:06;;;;;;;93.80;27.53;;;;;;;-2.01;100.00;97529.94;5042109;28;20465;-80
2022/01/26 09:07:32;;;;;;;84.80;27.50;;;;;;;-1.96;100.00;97531.47;5074450;28;20458;-80
2022/01/26 09:10:00;;;;;;;87.87;27.70;;;;;;;-1.94;100.00;97529.69;5059270;28;20470;-80
2022/01/26 09:12:27;;;;;;;92.40;27.73;;;;;;;-1.86;100.00;97533.75;5065137;28;20059;-79
2022/01/26 09:14:53;;;;;;;121.23;37.20;;;;;;;-1.96;100.00;97526.31;5076745;28;20479;-80
2022/01/26 09:17:20;;;;;;;98.90;35.63;;;;;;;-1.94;100.00;97523.72;5044605;28;20458;-81
2022/01/26 09:19:47;;;;;;;110.30;35.77;;;;;;;-1.91;100.00;97541.66;5091706;28;20449;-80
2022/01/26 09:22:15;;;;;;;110.90;38.97;;;;;;;-1.96;100.00;97551.25;5036629;28;20467;-81
2022/01/26 09:24:42;;;;;;;70.83;25.97;;;;;;;-1.88;100.00;97543.25;5081195;28;20465;-81
2022/01/26 09:27:12;;;;;;;97.23;27.60;;;;;;;-1.90;100.00;97549.31;5041465;28;20467;-81
2022/01/26 09:29:38;;;;;;;105.27;30.13;;;;;;;-1.98;100.00;97563.34;5042115;28;20457;-81
2022/01/26 09:32:04;;;;;;;88.57;28.07;;;;;;;-1.97;100.00;97554.75;5059325;28;20470;-80
2022/01/26 09:34:35;;;;;;;90.70;30.23;;;;;;;-1.90;100.00;97546.75;5061148;28;20474;-81
2022/01/26 09:37:02;;;;;;;74.50;26.17;;;;;;;-1.89;100.00;97550.16;5055617;28;20498;-81
2022/01/26 09:39:31;;;;;;;79.53;27.57;;;;;;;-1.87;100.00;97552.72;5040540;28;20459;-80
2022/01/26 09:41:58;;;;;;;90.07;30.67;;;;;;;-1.92;100.00;97552.84;5043414;28;20463;-81
2022/01/26 09:44:24;;;;;;;73.73;28.07;;;;;;;-1.79;100.00;97548.97;5048395;28;20459;-81
2022/01/26 09:46:50;;;;;;;89.03;31.87;;;;;;;-1.85;100.00;97551.75;5088904;28;20842;-80
2022/01/26 09:49:17;;;;;;;83.83;29.73;;;;;;;-1.71;100.00;97538.38;5061436;28;20035;-81
2022/01/26 09:51:49;;;;;;;69.77;27.97;;;;;;;-1.73;100.00;97532.44;5049478;28;20488;-81
2022/01/26 09:54:19;;;;;;;75.53;28.83;;;;;;;-1.74;100.00;97536.78;5076415;28;20463;-81
2022/01/26 09:56:47;;;;;;;69.13;29.13;;;;;;;-1.77;100.00;97516.25;5048118;28;20474;-80
2022/01/26 09:59:14;;;;;;;71.80;26.23;;;;;;;-1.66;100.00;97503.81;5061644;28;20563;-81
2022/01/26 10:01:47;;;;;;;102.40;30.40;;;;;;;-1.75;100.00;97509.28;5069147;28;21137;-81
2022/01/26 10:04:24;;;;;;;85.23;26.63;;;;;;;-1.65;100.00;97499.50;5080881;28;20475;-81
2022/01/26 10:07:19;;;;;;;90.43;27.60;;;;;;;-1.76;100.00;97501.59;5054518;28;20479;-81
2022/01/26 10:10:06;;;;;;;106.03;30.33;;;;;;;-1.75;100.00;97491.22;5056517;28;20482;-81
2022/01/26 10:18:22;;;;;;;106.90;29.07;;;;;;;-1.78;100.00;97503.38;5063693;28;20485;-81
2022/01/26 10:20:53;;;;;;;151.87;29.93;;;;;;;-1.88;100.00;97502.84;5050929;28;20534;-81
2022/01/26 10:23:25;;;;;;;132.73;29.93;;;;;;;-1.85;100.00;97497.59;5050439;28;20538;-81
2022/01/26 10:26:02;;;;;;;135.57;31.57;;;;;;;-1.79;100.00;97515.44;5052150;28;20478;-81
2022/01/26 10:28:50;;;;;;;88.50;28.77;;;;;;;-1.68;100.00;97527.97;5066391;28;20490;-80
2022/01/26 10:31:24;;;;;;;139.67;30.33;;;;;;;-1.78;100.00;97524.84;5047311;28;20474;-80
2022/01/26 10:34:10;;;;;;;97.03;29.43;;;;;;;-1.72;100.00;97514.34;5056120;28;20480;-80
2022/01/26 10:36:40;;;;;;;118.40;31.20;;;;;;;-1.75;100.00;97505.84;5068319;28;20474;-81
2022/01/26 10:39:14;;;;;;;109.27;30.23;;;;;;;-1.74;100.00;97499.84;5040613;28;20565;-83
2022/01/26 10:41:43;;;;;;;109.33;30.03;;;;;;;-1.67;100.00;97507.28;5057735;28;20486;-80
2022/01/26 10:44:17;;;;;;;83.83;28.67;;;;;;;-1.55;100.00;97500.00;5046087;28;20463;-80
2022/01/26 10:46:45;;;;;;;98.10;30.77;;;;;;;-1.58;100.00;97480.31;5054869;28;20856;-80
2022/01/26 10:49:31;;;;;;;118.63;30.43;;;;;;;-1.50;100.00;97478.31;5061882;28;20020;-80
2022/01/26 10:52:02;;;;;;;101.23;29.47;;;;;;;-1.63;100.00;97481.41;5090827;28;20480;-80
2022/01/26 10:54:37;;;;;;;87.30;29.17;;;;;;;-1.58;100.00;97489.81;5064924;28;20466;-80
2022/01/26 10:57:11;;;;;;;68.80;25.87;;;;;;;-1.66;100.00;97514.13;5055351;28;20466;-80
2022/01/26 10:59:42;;;;;;;81.40;28.33;;;;;;;-1.55;100.00;97500.84;5072982;28;20991;-79
2022/01/26 11:02:10;;;;;;;76.20;28.23;;;;;;;-1.59;100.00;97511.34;5053246;28;20523;-79
2022/01/26 11:04:38;;;;;;;94.10;29.07;;;;;;;-1.59;100.00;97519.91;5083024;28;20430;-79
2022/01/26 11:07:06;;;;;;;88.80;31.50;;;;;;;-1.52;100.00;97528.28;5051010;28;20823;-79
2022/01/26 11:09:36;;;;;;;100.53;33.87;;;;;;;-1.56;100.00;97534.44;5074979;28;20461;-79
2022/01/26 11:12:05;;;;;;;87.27;33.07;;;;;;;-1.60;100.00;97535.47;5054001;28;20477;-80
2022/01/26 11:14:39;;;;;;;88.47;31.57;;;;;;;-1.58;100.00;97542.22;5062153;28;20466;-80
2022/01/26 11:17:05;;;;;;;93.30;28.43;;;;;;;-1.62;100.00;97535.50;5049220;28;21007;-80
2022/01/26 11:19:46;;;;;;;96.20;32.00;;;;;;;-1.58;100.00;97538.81;5050542;28;20465;-81
2022/01/26 11:22:14;;;;;;;115.00;42.17;;;;;;;-1.52;100.00;97541.19;5058791;28;20032;-81
2022/01/26 11:24:49;;;;;;;86.67;28.80;;;;;;;-1.54;100.00;97548.13;5043437;28;20490;-80
2022/01/26 11:27:17;;;;;;;94.67;37.90;;;;;;;-1.47;100.00;97545.31;5067212;28;20454;-80
2022/01/26 11:29:47;;;;;;;77.70;32.97;;;;;;;-1.50;100.00;97540.25;5069510;28;20986;-81
2022/01/26 11:32:26;;;;;;;65.77;27.53;;;;;;;-1.57;100.00;97522.47;5045399;28;20471;-80
2022/01/26 11:34:53;;;;;;;83.93;34.67;;;;;;;-1.51;100.00;97522.22;5071555;28;20462;-80
2022/01/26 11:37:41;;;;;;;84.33;38.57;;;;;;;-1.47;100.00;97518.66;5052882;28;20553;-79
2022/01/26 11:45:26;;;;;;;53.43;23.80;;;;;;;-1.46;100.00;97515.19;5071698;28;20473;-80
2022/01/26 11:48:09;;;;;;;52.38;25.63;;;;;;;-1.48;100.00;97516.97;5054693;28;20513;-79
2022/01/26 11:50:39;;;;;;;58.17;25.20;;;;;;;-1.54;100.00;97509.44;5042300;28;20044;-79
2022/01/26 11:53:08;;;;;;;54.43;23.53;;;;;;;-1.50;100.00;97508.44;5068547;28;20020;-81
2022/01/26 11:55:47;;;;;;;50.43;23.27;;;;;;;-1.49;100.00;97521.28;5053298;28;20462;-82
2022/01/26 11:58:28;;;;;;;61.30;30.30;;;;;;;-1.49;100.00;97523.84;5055431;28;20565;-80
2022/01/26 12:01:26;;;;;;;49.17;24.20;;;;;;;-1.57;100.00;97501.81;5049076;28;20821;-81
2022/01/26 12:04:16;;;;;;;51.20;23.13;;;;;;;-1.49;100.00;97503.22;5062676;28;20474;-80
2022/01/26 12:06:49;;;;;;;55.13;24.73;;;;;;;-1.60;100.00;97509.66;5065140;28;21350;-80
2022/01/26 12:09:17;;;;;;;52.13;24.52;;;;;;;-1.60;100.00;97507.09;5044596;28;20475;-80
2022/01/26 12:11:47;;;;;;;55.37;23.17;;;;;;;-1.54;100.00;97488.78;5073513;28;20075;-80
2022/01/26 12:14:19;;;;;;;49.37;22.87;;;;;;;-1.52;100.00;97487.84;5045590;28;20470;-80
2022/01/26 12:16:47;;;;;;;52.00;24.00;;;;;;;-1.55;100.00;97481.97;5063009;28;20471;-80
2022/01/26 12:19:34;;;;;;;50.03;24.60;;;;;;;-1.60;100.00;97497.59;5077768;28;20551;-81
2022/01/26 12:36:37;;;;;;;55.63;23.67;;;;;;;-1.42;100.00;97496.09;5059995;28;20470;-78
2022/01/26 12:39:10;;;;;;;52.00;23.03;;;;;;;-1.37;100.00;97489.06;5075515;28;20498;-80
2022/01/26 12:41:38;;;;;;;50.00;21.35;;;;;;;-1.53;100.00;97493.06;5059622;28;20470;-80
2022/01/26 12:44:12;;;;;;;53.90;21.53;;;;;;;-1.47;100.00;97495.44;5064460;28;20060;-79
2022/01/26 12:46:51;;;;;;;57.03;24.70;;;;;;;-1.32;100.00;97500.03;5070322;28;20466;-81
2022/01/26 12:49:19;;;;;;;45.53;21.23;;;;;;;-1.31;100.00;97496.59;5053680;28;20458;-82
2022/01/26 12:51:54;;;;;;;54.57;23.73;;;;;;;-1.33;100.00;97490.63;5052746;28;20482;-81
2022/01/26 12:54:22;;;;;;;49.07;21.43;;;;;;;-1.38;100.00;97496.84;5064259;28;20707;-82
2022/01/26 12:56:47;;;;;;;106.47;47.47;;;;;;;-1.30;100.00;97493.09;5044781;28;20486;-78
2022/01/26 12:59:16;;;;;;;76.23;34.83;;;;;;;-1.40;100.00;97503.81;5067156;28;20462;-81
2022/01/26 13:01:45;;;;;;;118.83;47.27;;;;;;;-1.43;100.00;97499.59;5060271;28;20036;-81
2022/01/26 13:04:18;;;;;;;83.63;35.43;;;;;;;-1.33;100.00;97506.09;5052952;28;20474;-81
2022/01/26 13:06:51;;;;;;;84.78;34.30;;;;;;;-1.33;100.00;97505.28;5071098;28;20461;-81
2022/01/26 13:09:25;;;;;;;54.67;23.00;;;;;;;-1.39;100.00;97490.84;5064236;28;20033;-81
2022/01/26 13:11:55;;;;;;;58.27;27.67;;;;;;;-1.43;100.00;97486.69;5068715;28;20032;-82
2022/01/26 13:14:38;;;;;;;42.40;20.13;;;;;;;-1.51;100.00;97483.53;5063226;28;20463;-81
2022/01/26 13:17:17;;;;;;;42.80;18.85;;;;;;;-1.48;100.00;97481.66;5055947;28;20482;-81
2022/01/26 13:28:05;;;;;;;41.13;18.57;;;;;;;-1.39;100.00;97500.31;5091711;28;20514;-81
2022/01/26 13:35:52;;;;;;;47.37;21.27;;;;;;;-1.60;100.00;97496.78;5090894;28;20473;-81
2022/01/26 13:38:44;;;;;;;46.83;20.93;;;;;;;-1.53;100.00;97504.22;5056698;28;20486;-81
2022/01/26 13:44:25;;;;;;;43.17;21.33;;;;;;;-1.64;100.00;97502.91;5065179;28;20470;-80